Avilla, MO (64833)

12:00 PM CDT on July 25, 2016 (GMT -0500)
APRSWXNET | | Change Station

Elev 1069 ft 37.39 °N, 93.95 °W | Updated 47 minutes ago

Overcast
Overcast
77 °F
Feels Like 78 °F
N
1
Wind Variable Wind from West
Gusts 0.0 mph

Today
High -- | Low -- °F
--% Chance of Precip.
Yesterday
High -- | Low -- °F
Precip. -- in
Pressure 30.06 in
Visibility 10.0 miles
Clouds Few 9000 ft
Scattered Clouds 11000 ft
Heat Index 78 °F
Dew Point 71 °F
Humidity 83%
Rainfall in
Snow Depth Not available.
6:16 AM 8:29 PM
Waning Gibbous, 64% visible
METAR KJLN 251653Z 10009KT 10SM -RA FEW090 SCT110 24/23 A3009 RMK AO2 SLP178 P0001 T02390228
Pressure 30.06 in
Visibility 10.0 miles
Clouds Few 9000 ft
Scattered Clouds 11000 ft
Heat Index 78 °F
Dew Point 71 °F
Humidity 83%
Rainfall in
Snow Depth Not available.
6:16 AM 8:29 PM
Waning Gibbous, 64% visible
METAR KJLN 251653Z 10009KT 10SM -RA FEW090 SCT110 24/23 A3009 RMK AO2 SLP178 P0001 T02390228

10-Day Weather Forecast

Almanac

Astronomy

Jul. 25, 2016 Rise Set
Actual Time
Civil Twilight
Nautical Twilight
Astronomical Twilight
Moon
Length of Visible Light
Length of Day
Tomorrow will be .
, % of the Moon is Illuminated

Today's Extremes

State Highs State Lows

Community

WunderPhotos

Upload Photos

1,927,349 photos uploaded!

WunderBlog® & News

Nearby

Air Quality

  Air Quality AQ Index Pollutant
Not available.

Snow Depth

Station Depth Elevation

Earthquake Activity

City Distance Mag. Time & Date
Minimum magnitude displayed is 2.5.

Coastal Water Temperatures

Place Temperature

Stations

Nearby Weather Stations

Station Location Temp. Windchill Dew Point Humidity Wind Precip. Elev Updated Type
                   

Watches & Warnings

There are currently no watches in effect.